»·PEaware :: PSV130 KPDX-KSMF

PSV130 :: KPDX-KSMF

FLIGHT INFORMATION

Flight Status: Arrived
Operator:
Power Set Virtual (website)
More flights by this operator :: More flights under this callsign
Pilot: David J. (24489)
Aircraft: BOEING 737-800
(B738)
More flights by this aircraft type
Origin: KPDX Portland Intl
United States
Destination: KSMF Sacramento Intl
United States
More flights between these airports :: More routes between these airports
Route: HRMNS5 HRMNS J189 LMT TUDOR2
File this flight plan on PilotEdge
Remarks: RMK / SIMBRIEF
Altitude:
(Current/Filed)
37,000ft
Speed:
(Current/Filed)
440kts
Departed: 23-Apr-20 06:30 PM
Arrived: 23-Apr-20 07:41 PM
Distance/Time
Traveled:
416nm/1:10
Distance/Time
To Go:
Arrived

Flight Plot

Page will automatically refresh every two minutes.


Map Options




Map Legend


Flown Route
Filed Route
Departure Airport
Arrival Airport
Navaid (VOR, NDB)
Fix

Horizontal Profiles

Position Reports

Time Latitude Longitude Heading Altitude Ground
Speed
23-Apr-20 18:13 45.589604 -122.599489 58 38ft 0kts
23-Apr-20 18:14 45.589604 -122.599489 58 38ft 0kts
23-Apr-20 18:15 45.589604 -122.599489 58 38ft 0kts
23-Apr-20 18:16 45.589604 -122.599489 58 38ft 0kts
23-Apr-20 18:17 45.589604 -122.599489 58 38ft 0kts
23-Apr-20 18:18 45.589604 -122.599489 58 38ft 0kts
23-Apr-20 18:19 45.589604 -122.599489 58 38ft 0kts
23-Apr-20 18:20 45.589604 -122.599489 58 38ft 0kts
23-Apr-20 18:22 45.589604 -122.599489 58 38ft 0kts
23-Apr-20 18:23 45.589604 -122.599489 58 38ft 0kts
23-Apr-20 18:24 45.589604 -122.599490 58 38ft 0kts
23-Apr-20 18:25 45.589238 -122.600025 22 38ft 2kts
23-Apr-20 18:26 45.588777 -122.599723 298 38ft 3kts
23-Apr-20 18:27 45.588777 -122.599724 298 38ft 0kts
23-Apr-20 18:28 45.590424 -122.601491 40 38ft 19kts
23-Apr-20 18:29 45.593132 -122.597226 65 38ft 21kts
23-Apr-20 18:30 45.591658 -122.587285 120 38ft 113kts
23-Apr-20 18:31 45.576506 -122.528768 91 2768ft 171kts
23-Apr-20 18:32 45.565414 -122.444133 106 4565ft 262kts
23-Apr-20 18:33 45.546662 -122.355784 106 8342ft 241kts
23-Apr-20 18:34 45.500744 -122.280532 166 10753ft 278kts
23-Apr-20 18:35 45.436088 -122.307999 214 14577ft 226kts
23-Apr-20 18:36 45.358441 -122.326952 186 15023ft 347kts
23-Apr-20 18:37 45.255950 -122.334377 189 14738ft 374kts
23-Apr-20 18:38 45.155047 -122.356029 196 18184ft 345kts
23-Apr-20 18:39 45.053123 -122.372914 193 19747ft 394kts
23-Apr-20 18:40 44.988775 -122.383547 194 20800ft 410kts
23-Apr-20 18:40 44.917052 -122.383947 180 22173ft 431kts
23-Apr-20 18:42 44.775035 -122.347840 177 24443ft 452kts
23-Apr-20 18:43 44.648982 -122.316327 178 26163ft 466kts
23-Apr-20 18:43 44.541087 -122.289672 179 27408ft 479kts
23-Apr-20 18:44 44.408863 -122.257345 180 28868ft 490kts
23-Apr-20 18:45 44.273394 -122.224436 181 30180ft 499kts
23-Apr-20 18:46 44.136081 -122.191515 182 32034ft 490kts
23-Apr-20 18:47 44.000832 -122.158641 182 33218ft 497kts
23-Apr-20 18:48 43.865233 -122.126035 182 34674ft 492kts
23-Apr-20 18:49 43.730775 -122.093928 182 35953ft 489kts
23-Apr-20 18:50 43.597762 -122.062312 182 37214ft 483kts
23-Apr-20 18:51 43.462501 -122.030293 181 37353ft 501kts
23-Apr-20 18:52 43.325261 -121.997951 181 37351ft 497kts
23-Apr-20 18:53 43.188434 -121.965861 181 37343ft 500kts
23-Apr-20 18:54 43.051265 -121.933831 180 37339ft 499kts
23-Apr-20 18:55 42.914296 -121.901995 180 37335ft 498kts
23-Apr-20 18:56 42.777590 -121.870362 180 37331ft 498kts
23-Apr-20 18:57 42.641099 -121.838910 180 37330ft 497kts
23-Apr-20 18:58 42.505283 -121.807751 180 37331ft 496kts
23-Apr-20 18:59 42.369298 -121.776587 180 37328ft 494kts
23-Apr-20 19:00 42.233488 -121.745748 180 37329ft 494kts
23-Apr-20 19:01 42.101906 -121.727550 189 37329ft 481kts
23-Apr-20 19:02 42.053385 -121.727233 189 37329ft 481kts
23-Apr-20 19:03 41.919489 -121.726547 189 37325ft 481kts
23-Apr-20 19:04 41.785267 -121.725898 189 37319ft 481kts
23-Apr-20 19:05 41.651727 -121.725257 189 37307ft 481kts
23-Apr-20 19:06 41.517637 -121.724619 189 37301ft 481kts
23-Apr-20 19:07 41.383752 -121.723983 190 37289ft 476kts
23-Apr-20 19:08 41.257009 -121.723395 191 37263ft 437kts
23-Apr-20 19:09 41.135787 -121.722844 191 37250ft 437kts
23-Apr-20 19:10 41.013186 -121.722257 190 35688ft 452kts
23-Apr-20 19:11 40.888039 -121.721656 190 33806ft 445kts
23-Apr-20 19:12 40.765431 -121.721079 189 32198ft 434kts
23-Apr-20 19:13 40.647302 -121.720522 189 30379ft 421kts
23-Apr-20 19:14 40.531916 -121.719961 188 28369ft 409kts
23-Apr-20 19:15 40.419538 -121.718678 184 26373ft 400kts
23-Apr-20 19:16 40.309781 -121.708314 183 24451ft 388kts
23-Apr-20 19:17 40.203650 -121.699262 182 22533ft 377kts
23-Apr-20 19:18 40.100107 -121.690383 182 20632ft 368kts
23-Apr-20 19:19 39.999177 -121.681727 182 19011ft 362kts
23-Apr-20 19:20 39.899241 -121.673235 182 17614ft 356kts
23-Apr-20 19:21 39.801019 -121.664878 181 16150ft 352kts
23-Apr-20 19:22 39.703927 -121.656612 180 14777ft 346kts
23-Apr-20 19:23 39.608516 -121.653996 183 13424ft 339kts
23-Apr-20 19:24 39.514917 -121.654130 183 12137ft 333kts
23-Apr-20 19:25 39.427070 -121.654710 183 11910ft 297kts
23-Apr-20 19:26 39.346828 -121.654868 183 11034ft 282kts
23-Apr-20 19:27 39.269192 -121.656396 183 9668ft 275kts
23-Apr-20 19:28 39.194070 -121.659638 183 9024ft 267kts
23-Apr-20 19:29 39.118652 -121.663449 183 9019ft 273kts
23-Apr-20 19:30 39.041616 -121.667534 183 8352ft 286kts
23-Apr-20 19:31 38.960957 -121.671689 183 6657ft 289kts
23-Apr-20 19:32 38.883145 -121.674711 183 5727ft 260kts
23-Apr-20 19:33 38.812409 -121.676707 183 4822ft 252kts
23-Apr-20 19:34 38.742667 -121.678409 183 3723ft 248kts
23-Apr-20 19:35 38.675590 -121.679482 183 3025ft 219kts
23-Apr-20 19:36 38.621741 -121.679451 179 2941ft 180kts
23-Apr-20 19:37 38.602561 -121.628759 90 2646ft 179kts
23-Apr-20 19:38 38.636720 -121.598707 351 743ft 167kts
23-Apr-20 19:39 38.679433 -121.601439 1 156ft 159kts
23-Apr-20 19:40 38.705902 -121.601127 1 36ft 23kts
23-Apr-20 19:41 38.707077 -121.598685 130 36ft 10kts
23-Apr-20 19:42 38.701069 -121.598566 180 36ft 22kts
23-Apr-20 19:43 38.697016 -121.597504 92 36ft 12kts
23-Apr-20 19:44 38.696373 -121.589383 135 36ft 22kts
23-Apr-20 19:45 38.694711 -121.587647 145 36ft 0kts
23-Apr-20 19:46 38.694711 -121.587647 145 36ft 0kts
23-Apr-20 19:47 38.694711 -121.587647 145 36ft 0kts
23-Apr-20 19:48 38.694711 -121.587647 145 36ft 0kts
23-Apr-20 19:49 38.694711 -121.587647 145 36ft 0kts

Navigation Log

Ident Type
Flight plan parsing failed, navigation log unavailable